Time;durP1;ratioP1;P1;durP2;ratioP2;P2;SDS_P1;SDS_P2;PMS_P1;PMS_P2;Temp;Humidity;BMP_temperature;BMP_pressure;BME280_temperature;BME280_humidity;BME280_pressure;Samples;Min_cycle;Max_cycle;Signal;HPM_P1;HPM_P2
2022/11/19 00:01:25;;;;;;;7.72;4.65;;;4.00;99.90;;;;;;5023367;28;20041;-70
2022/11/19 00:03:53;;;;;;;5.50;3.65;;;4.00;99.90;;;;;;5019417;28;20033;-70
2022/11/19 00:06:26;;;;;;;8.52;4.32;;;4.00;99.90;;;;;;5003786;28;20488;-70
2022/11/19 00:08:54;;;;;;;7.85;4.68;;;4.00;99.90;;;;;;5018415;28;20046;-70
2022/11/19 00:14:13;;;;;;;7.82;4.50;;;4.00;99.90;;;;;;5028780;28;20061;-71
2022/11/19 00:16:45;;;;;;;8.80;4.53;;;4.00;99.90;;;;;;5023766;28;20124;-71
2022/11/19 00:19:13;;;;;;;7.53;4.50;;;4.00;99.90;;;;;;5024400;28;20038;-71
2022/11/19 00:21:40;;;;;;;7.20;4.78;;;4.00;99.90;;;;;;5023442;28;20053;-71
2022/11/19 00:24:09;;;;;;;7.95;5.25;;;4.00;99.90;;;;;;5006785;28;20050;-72
2022/11/19 00:26:36;;;;;;;7.88;5.15;;;3.90;99.90;;;;;;5022707;28;20045;-71
2022/11/19 00:29:03;;;;;;;9.10;5.90;;;3.80;99.90;;;;;;5007577;28;20468;-70
2022/11/19 00:31:31;;;;;;;9.05;5.30;;;3.80;99.90;;;;;;5023650;28;20037;-70
2022/11/19 00:33:58;;;;;;;8.95;5.80;;;3.80;99.90;;;;;;5025884;28;20366;-70
2022/11/19 00:36:26;;;;;;;8.57;5.75;;;3.80;99.90;;;;;;5015598;28;20101;-71
2022/11/19 00:38:53;;;;;;;9.50;5.90;;;3.80;99.90;;;;;;5015686;28;20125;-70
2022/11/19 00:41:21;;;;;;;9.23;6.03;;;3.80;99.90;;;;;;4996239;28;20109;-71
2022/11/19 00:43:49;;;;;;;11.18;5.95;;;3.80;99.90;;;;;;5019841;28;20037;-70
2022/11/19 00:46:27;;;;;;;10.43;6.78;;;3.90;99.90;;;;;;5005331;28;20077;-70
2022/11/19 00:48:56;;;;;;;10.65;6.90;;;3.90;99.90;;;;;;5022012;28;20042;-71
2022/11/19 00:51:26;;;;;;;10.43;6.72;;;3.90;99.90;;;;;;5020151;28;20518;-71
2022/11/19 00:53:54;;;;;;;10.43;6.65;;;3.90;99.90;;;;;;5020844;28;20056;-70
2022/11/19 00:56:23;;;;;;;9.50;6.18;;;3.90;99.90;;;;;;4992392;28;20056;-70
2022/11/19 00:58:51;;;;;;;8.80;5.95;;;3.90;99.90;;;;;;5011907;28;20563;-69
2022/11/19 01:01:20;;;;;;;8.85;5.55;;;3.90;99.90;;;;;;5022121;28;20103;-70
2022/11/19 01:03:48;;;;;;;8.77;4.93;;;3.90;99.90;;;;;;5017062;28;20366;-71
2022/11/19 01:06:18;;;;;;;9.50;5.32;;;3.90;99.90;;;;;;5023859;28;20045;-71
2022/11/19 01:08:50;;;;;;;9.75;5.53;;;3.90;99.90;;;;;;5024151;28;20076;-70
2022/11/19 01:11:20;;;;;;;9.32;6.25;;;3.90;99.90;;;;;;5001521;28;20046;-70
2022/11/19 01:13:47;;;;;;;9.25;6.13;;;3.90;99.90;;;;;;5016609;28;20616;-71
2022/11/19 01:16:16;;;;;;;9.98;6.55;;;3.90;99.90;;;;;;5014183;28;20057;-71
2022/11/19 01:18:46;;;;;;;9.02;5.53;;;3.80;99.90;;;;;;5003727;28;20045;-71
2022/11/19 01:21:14;;;;;;;10.57;6.45;;;3.90;99.90;;;;;;5026953;28;20444;-72
2022/11/19 01:23:43;;;;;;;10.10;6.45;;;3.80;99.90;;;;;;5022307;28;20033;-68
2022/11/19 01:26:11;;;;;;;9.75;6.43;;;3.80;99.90;;;;;;5030320;28;20064;-68
2022/11/19 01:28:40;;;;;;;10.40;5.60;;;3.80;99.90;;;;;;5001062;28;20519;-68
2022/11/19 01:31:13;;;;;;;8.45;5.60;;;3.80;99.90;;;;;;5014005;28;20037;-69
2022/11/19 01:33:41;;;;;;;9.63;6.25;;;3.70;99.90;;;;;;5031245;28;20051;-68
2022/11/19 01:36:15;;;;;;;10.15;5.65;;;3.60;99.90;;;;;;5031751;28;20056;-67
2022/11/19 01:38:43;;;;;;;10.15;6.20;;;3.60;99.90;;;;;;5032321;28;20049;-67
2022/11/19 01:41:10;;;;;;;9.95;5.55;;;3.60;99.90;;;;;;5006907;28;20073;-68
2022/11/19 01:43:41;;;;;;;9.98;6.47;;;3.60;99.90;;;;;;5021616;28;20112;-68
2022/11/19 01:46:10;;;;;;;10.65;6.88;;;3.60;99.90;;;;;;5018559;28;20499;-69
2022/11/19 01:49:01;;;;;;;15.13;7.55;;;3.50;99.90;;;;;;5020097;28;20067;-67
2022/11/19 01:51:42;;;;;;;11.40;7.40;;;3.40;99.90;;;;;;4995756;28;20042;-69
2022/11/19 01:54:20;;;;;;;13.80;7.80;;;3.30;99.90;;;;;;5014959;28;20049;-69
2022/11/19 01:56:47;;;;;;;12.38;7.15;;;3.20;99.90;;;;;;5020404;28;20280;-69
2022/11/19 01:59:17;;;;;;;12.18;6.82;;;3.10;99.90;;;;;;5023633;28;20042;-70
2022/11/19 02:01:45;;;;;;;12.52;7.75;;;3.00;99.90;;;;;;5003706;28;20053;-69
2022/11/19 02:04:16;;;;;;;11.57;7.65;;;2.90;99.90;;;;;;5022877;28;20439;-69
2022/11/19 02:06:44;;;;;;;12.05;7.18;;;2.90;99.90;;;;;;5022794;28;20058;-69
2022/11/19 02:09:11;;;;;;;13.00;7.70;;;2.80;99.90;;;;;;5025189;28;20132;-70
2022/11/19 02:11:54;;;;;;;13.25;7.65;;;2.80;99.90;;;;;;5018853;28;20049;-69
2022/11/19 02:14:22;;;;;;;12.52;7.78;;;2.70;99.90;;;;;;5022827;28;20091;-69
2022/11/19 02:16:55;;;;;;;13.23;7.65;;;2.70;99.90;;;;;;5031261;28;20519;-69
2022/11/19 02:19:41;;;;;;;10.32;6.93;;;2.60;99.90;;;;;;5024937;28;20060;-69
2022/11/19 02:22:30;;;;;;;12.07;7.53;;;2.50;99.90;;;;;;5021224;28;20046;-68
2022/11/19 02:25:06;;;;;;;13.02;7.70;;;2.50;99.90;;;;;;5018815;28;20068;-69
2022/11/19 02:27:49;;;;;;;12.82;7.75;;;2.50;99.90;;;;;;5008252;28;20436;-69
2022/11/19 02:30:18;;;;;;;11.02;6.97;;;2.50;99.90;;;;;;5005127;28;20046;-69
2022/11/19 02:33:09;;;;;;;12.52;7.70;;;2.50;99.90;;;;;;5019464;28;20038;-69
2022/11/19 02:35:57;;;;;;;12.57;7.68;;;2.50;99.90;;;;;;5011661;28;20116;-69
2022/11/19 02:38:35;;;;;;;12.43;7.57;;;2.50;99.90;;;;;;5008281;28;20092;-69
2022/11/19 02:41:32;;;;;;;13.60;7.32;;;2.50;99.90;;;;;;5011454;28;20145;-69
2022/11/19 02:47:40;;;;;;;11.45;7.05;;;2.60;99.90;;;;;;5047365;28;20055;-69
2022/11/19 02:50:14;;;;;;;12.25;7.38;;;2.60;99.90;;;;;;5048257;28;20055;-69
2022/11/19 02:52:43;;;;;;;11.75;7.32;;;2.70;99.90;;;;;;5026912;28;20637;-69
2022/11/19 02:55:19;;;;;;;13.10;7.15;;;2.70;99.90;;;;;;5026322;28;20049;-69
2022/11/19 02:57:57;;;;;;;11.85;7.38;;;2.70;99.90;;;;;;5016757;28;20053;-69
2022/11/19 03:06:08;;;;;;;11.43;6.75;;;2.80;99.90;;;;;;5048548;28;20045;-69
2022/11/19 03:08:35;;;;;;;10.95;6.65;;;2.80;99.90;;;;;;5032868;28;20072;-69
2022/11/19 03:11:21;;;;;;;12.15;7.28;;;2.80;99.90;;;;;;5031142;28;20067;-69
2022/11/19 03:17:16;;;;;;;12.55;7.85;;;2.90;99.90;;;;;;5048623;28;20041;-70
2022/11/19 03:20:00;;;;;;;11.88;7.00;;;2.90;99.90;;;;;;5009717;28;20038;-67
2022/11/19 03:22:35;;;;;;;12.43;7.38;;;2.90;99.90;;;;;;5024317;28;20048;-68
2022/11/19 03:25:11;;;;;;;10.98;6.88;;;2.90;99.90;;;;;;5030558;28;20057;-68
2022/11/19 03:27:50;;;;;;;11.13;6.72;;;2.90;99.90;;;;;;5018661;28;20050;-68
2022/11/19 03:30:18;;;;;;;10.90;6.55;;;2.90;99.90;;;;;;5029880;28;20383;-68
2022/11/19 03:32:53;;;;;;;10.35;6.57;;;2.90;99.90;;;;;;5005126;28;20052;-68
2022/11/19 03:35:33;;;;;;;12.57;7.22;;;3.00;99.90;;;;;;5013433;28;20049;-69
2022/11/19 03:38:04;;;;;;;11.90;7.32;;;3.00;99.90;;;;;;5026389;28;20044;-69
2022/11/19 03:40:33;;;;;;;11.47;7.07;;;3.00;99.90;;;;;;5027211;28;20042;-69
2022/11/19 03:43:04;;;;;;;10.32;6.35;;;3.10;99.90;;;;;;5017922;28;20308;-68
2022/11/19 03:45:38;;;;;;;11.80;6.53;;;3.10;99.90;;;;;;5007365;28;20567;-69
2022/11/19 03:48:06;;;;;;;10.88;6.18;;;3.10;99.90;;;;;;5029234;28;20152;-68
2022/11/19 03:51:03;;;;;;;11.27;7.00;;;3.10;99.90;;;;;;4993787;28;20050;-68
2022/11/19 03:53:30;;;;;;;10.27;6.13;;;3.10;99.90;;;;;;5024871;28;20507;-68
2022/11/19 03:56:02;;;;;;;10.93;6.90;;;3.10;99.90;;;;;;5015482;28;20494;-69
2022/11/19 03:58:39;;;;;;;11.25;6.50;;;3.10;99.90;;;;;;5027754;28;20048;-68
2022/11/19 04:01:07;;;;;;;10.00;6.13;;;3.00;99.90;;;;;;5009980;28;20053;-68
2022/11/19 04:03:34;;;;;;;9.15;5.88;;;3.00;99.90;;;;;;5022881;28;20042;-70
2022/11/19 04:06:02;;;;;;;10.35;6.03;;;3.00;99.90;;;;;;5010368;28;20046;-69
2022/11/19 04:08:30;;;;;;;10.75;6.78;;;3.10;99.90;;;;;;5011840;28;20504;-68
2022/11/19 04:10:58;;;;;;;10.35;6.38;;;3.00;99.90;;;;;;5030851;28;20377;-68
2022/11/19 04:13:27;;;;;;;10.07;5.80;;;3.00;99.90;;;;;;5028603;28;20507;-68
2022/11/19 04:15:54;;;;;;;9.07;5.63;;;3.00;99.90;;;;;;5025801;28;20409;-69
2022/11/19 04:18:21;;;;;;;10.57;6.32;;;3.00;99.90;;;;;;5029810;28;20068;-68
2022/11/19 04:20:48;;;;;;;9.90;6.00;;;3.10;99.90;;;;;;5028166;28;20507;-69
2022/11/19 04:23:16;;;;;;;10.63;6.75;;;3.10;99.90;;;;;;5027589;28;20564;-68
2022/11/19 04:25:46;;;;;;;10.20;5.93;;;3.10;99.90;;;;;;5021452;28;20061;-68
2022/11/19 04:28:13;;;;;;;9.40;5.63;;;3.00;99.90;;;;;;5028329;28;20460;-69
2022/11/19 04:30:41;;;;;;;9.00;5.65;;;3.00;99.90;;;;;;5028299;28;20033;-67
2022/11/19 04:33:09;;;;;;;9.80;6.00;;;3.00;99.90;;;;;;5025558;28;20083;-67
2022/11/19 04:35:36;;;;;;;10.77;6.53;;;3.00;99.90;;;;;;5017275;28;20560;-68
2022/11/19 04:38:03;;;;;;;11.68;7.25;;;3.00;99.90;;;;;;5022487;28;20563;-68
2022/11/19 04:40:30;;;;;;;11.48;7.18;;;3.00;99.90;;;;;;5028204;28;20660;-68
2022/11/19 04:42:58;;;;;;;12.13;7.03;;;3.00;99.90;;;;;;5002990;28;20130;-68
2022/11/19 04:45:25;;;;;;;10.98;6.80;;;2.90;99.90;;;;;;5021047;28;20039;-68
2022/11/19 04:47:52;;;;;;;11.68;7.20;;;2.90;99.90;;;;;;5028334;28;20053;-68
2022/11/19 04:50:19;;;;;;;12.32;7.22;;;2.90;99.90;;;;;;5028471;28;20136;-68
2022/11/19 04:52:47;;;;;;;10.35;6.47;;;2.90;99.90;;;;;;5011891;28;20048;-68
2022/11/19 04:55:14;;;;;;;12.25;7.35;;;3.00;99.90;;;;;;5019784;28;20096;-68
2022/11/19 04:57:41;;;;;;;13.07;8.00;;;3.00;99.90;;;;;;5028100;28;20041;-68
2022/11/19 05:00:09;;;;;;;13.57;7.68;;;2.90;99.90;;;;;;5027501;28;20037;-68
2022/11/19 05:02:36;;;;;;;13.07;8.13;;;2.90;99.90;;;;;;5023817;28;20062;-68
2022/11/19 05:05:04;;;;;;;11.55;7.45;;;2.90;99.90;;;;;;5028796;28;20041;-68
2022/11/19 05:07:31;;;;;;;14.93;8.90;;;2.90;99.90;;;;;;5008572;28;20149;-68
2022/11/19 05:09:58;;;;;;;14.38;8.35;;;2.90;99.90;;;;;;5011678;28;20038;-68
2022/11/19 05:12:26;;;;;;;14.73;9.00;;;3.00;99.90;;;;;;5025210;28;20564;-68
2022/11/19 05:14:53;;;;;;;15.55;9.18;;;2.90;99.90;;;;;;5027939;28;20096;-68
2022/11/19 05:17:21;;;;;;;18.33;10.45;;;2.90;99.90;;;;;;5034790;28;20052;-68
2022/11/19 05:19:48;;;;;;;17.55;10.40;;;2.90;99.90;;;;;;5028992;28;20087;-68
2022/11/19 05:22:15;;;;;;;14.63;9.05;;;2.90;99.90;;;;;;5026405;28;20049;-68
2022/11/19 05:24:42;;;;;;;16.40;9.38;;;2.90;99.90;;;;;;5015462;28;20057;-68
2022/11/19 05:27:10;;;;;;;17.20;10.63;;;2.90;99.90;;;;;;5028123;28;20051;-68
2022/11/19 05:29:37;;;;;;;15.75;10.05;;;2.80;99.90;;;;;;5015913;28;20046;-68
2022/11/19 05:32:04;;;;;;;16.02;9.90;;;2.80;99.90;;;;;;5008334;28;20112;-68
2022/11/19 05:34:32;;;;;;;16.77;10.10;;;2.80;99.90;;;;;;5026690;28;20480;-69
2022/11/19 05:36:59;;;;;;;17.17;10.43;;;2.80;99.90;;;;;;5012207;28;20049;-69
2022/11/19 05:39:26;;;;;;;16.15;9.68;;;2.80;99.90;;;;;;5017037;28;20141;-69
2022/11/19 05:41:54;;;;;;;17.63;10.60;;;2.80;99.90;;;;;;5026435;28;20046;-69
2022/11/19 05:44:21;;;;;;;16.90;10.25;;;2.80;99.90;;;;;;5014382;28;20103;-69
2022/11/19 05:46:48;;;;;;;17.20;11.02;;;2.80;99.90;;;;;;5027413;28;20045;-69
2022/11/19 05:49:16;;;;;;;17.52;10.52;;;2.80;99.90;;;;;;5027888;28;20046;-69
2022/11/19 05:51:45;;;;;;;17.30;10.98;;;2.80;99.90;;;;;;5022817;28;20038;-69
2022/11/19 05:54:12;;;;;;;22.67;11.43;;;2.80;99.90;;;;;;5008006;28;20136;-68
2022/11/19 05:56:40;;;;;;;18.88;11.38;;;2.80;99.90;;;;;;5005228;28;20451;-68
2022/11/19 05:59:07;;;;;;;21.35;12.05;;;2.80;99.90;;;;;;5017562;28;20467;-68
2022/11/19 06:01:34;;;;;;;19.08;11.85;;;2.80;99.90;;;;;;5024140;28;20042;-68
2022/11/19 06:04:02;;;;;;;21.15;12.63;;;2.80;99.90;;;;;;5026465;28;20037;-69
2022/11/19 06:06:29;;;;;;;23.83;13.75;;;2.80;99.90;;;;;;5027170;28;20092;-68
2022/11/19 06:08:56;;;;;;;23.58;13.63;;;2.90;99.90;;;;;;5028647;28;20042;-68
2022/11/19 06:14:09;;;;;;;22.50;11.57;;;2.90;99.90;;;;;;5031869;28;20057;-68
2022/11/19 06:16:37;;;;;;;21.35;12.63;;;2.80;99.90;;;;;;5032288;28;20045;-68
2022/11/19 06:19:04;;;;;;;20.27;11.35;;;2.80;99.90;;;;;;5014053;28;20490;-69
2022/11/19 06:21:31;;;;;;;21.80;12.65;;;2.70;99.90;;;;;;5021170;28;20083;-69
2022/11/19 06:23:59;;;;;;;23.60;13.30;;;2.70;99.90;;;;;;5023023;28;20045;-70
2022/11/19 06:26:28;;;;;;;22.98;12.98;;;2.70;99.90;;;;;;5032131;28;20475;-69
2022/11/19 06:28:56;;;;;;;21.17;12.50;;;2.70;99.90;;;;;;5004094;28;20607;-68
2022/11/19 06:31:23;;;;;;;23.30;13.30;;;2.70;99.90;;;;;;5029440;28;20041;-68
2022/11/19 06:33:54;;;;;;;29.40;13.30;;;2.70;99.90;;;;;;5031941;28;20052;-68
2022/11/19 06:36:22;;;;;;;23.10;13.85;;;2.80;99.90;;;;;;5023124;28;20041;-68
2022/11/19 06:38:53;;;;;;;23.42;13.18;;;2.70;99.90;;;;;;5030407;28;20045;-68
2022/11/19 06:41:21;;;;;;;20.88;12.80;;;2.80;99.90;;;;;;5007202;28;20037;-68
2022/11/19 06:43:48;;;;;;;22.95;13.43;;;2.80;99.90;;;;;;5006253;28;20041;-68
2022/11/19 06:46:15;;;;;;;22.38;12.88;;;2.80;99.90;;;;;;5021990;28;20046;-68
2022/11/19 06:48:42;;;;;;;25.45;14.43;;;2.90;99.90;;;;;;5027371;28;20064;-68
2022/11/19 06:51:10;;;;;;;22.33;13.90;;;2.80;99.90;;;;;;5027193;28;20132;-68
2022/11/19 06:53:38;;;;;;;21.88;13.07;;;2.80;99.90;;;;;;5020228;28;20034;-68
2022/11/19 06:56:06;;;;;;;24.70;13.93;;;2.80;99.90;;;;;;5030473;28;20053;-68
2022/11/19 06:58:33;;;;;;;23.70;13.80;;;2.90;99.90;;;;;;5029376;28;20049;-68
2022/11/19 07:01:01;;;;;;;23.42;13.60;;;2.80;99.90;;;;;;5019737;28;20046;-68
2022/11/19 07:03:28;;;;;;;23.92;13.98;;;2.80;99.90;;;;;;5023780;28;20499;-68
2022/11/19 07:06:02;;;;;;;25.33;15.68;;;2.80;99.90;;;;;;5030848;28;20504;-68
2022/11/19 07:08:33;;;;;;;26.17;15.25;;;2.80;99.90;;;;;;5029501;28;20064;-69
2022/11/19 07:11:24;;;;;;;25.35;15.10;;;2.80;99.90;;;;;;5031405;28;20056;-69
2022/11/19 07:13:58;;;;;;;25.35;14.30;;;2.80;99.90;;;;;;5030688;28;20050;-68
2022/11/19 07:16:35;;;;;;;22.35;13.57;;;2.80;99.90;;;;;;4996948;28;20408;-69
2022/11/19 07:19:05;;;;;;;22.90;13.50;;;2.80;99.90;;;;;;5023758;28;20080;-68
2022/11/19 07:21:32;;;;;;;21.88;13.48;;;2.80;99.90;;;;;;5030559;28;20057;-69
2022/11/19 07:24:04;;;;;;;23.67;14.25;;;2.80;99.90;;;;;;5024839;28;20056;-69
2022/11/19 07:26:32;;;;;;;21.05;13.50;;;2.80;99.90;;;;;;5031440;28;20193;-68
2022/11/19 07:29:02;;;;;;;21.42;12.75;;;2.70;99.90;;;;;;5030377;28;20103;-69
2022/11/19 07:31:32;;;;;;;23.25;13.18;;;2.60;99.90;;;;;;5026502;28;20116;-68
2022/11/19 07:33:59;;;;;;;22.75;13.32;;;2.60;99.90;;;;;;5019086;28;20141;-69
2022/11/19 07:36:27;;;;;;;23.63;13.45;;;2.60;99.90;;;;;;4993865;28;20053;-69
2022/11/19 07:38:54;;;;;;;25.10;14.48;;;2.60;99.90;;;;;;5025157;28;20082;-69
2022/11/19 07:44:07;;;;;;;21.65;13.23;;;2.60;99.90;;;;;;5008996;28;20076;-69
2022/11/19 07:46:34;;;;;;;23.50;13.70;;;2.50;99.90;;;;;;5017085;28;20136;-68
2022/11/19 07:49:01;;;;;;;22.98;13.90;;;2.40;99.90;;;;;;5021336;28;20124;-70
2022/11/19 07:51:29;;;;;;;27.55;14.65;;;2.30;99.90;;;;;;5007627;28;20052;-68
2022/11/19 07:53:56;;;;;;;23.75;14.32;;;2.30;99.90;;;;;;5021066;28;20521;-69
2022/11/19 07:56:24;;;;;;;24.10;14.05;;;2.20;99.90;;;;;;5018139;28;20096;-68
2022/11/19 07:58:51;;;;;;;24.88;14.27;;;2.30;99.90;;;;;;5018206;28;20125;-68
2022/11/19 08:01:21;;;;;;;24.38;14.20;;;2.30;99.90;;;;;;5019702;28;20495;-69
2022/11/19 08:03:51;;;;;;;24.75;13.98;;;2.20;99.90;;;;;;4980672;28;20054;-68
2022/11/19 08:06:25;;;;;;;24.73;14.18;;;2.10;99.90;;;;;;5020403;28;20045;-69
2022/11/19 08:08:55;;;;;;;29.23;15.43;;;2.00;99.90;;;;;;5022132;28;20051;-69
2022/11/19 08:11:23;;;;;;;24.92;14.73;;;2.00;99.90;;;;;;5028330;28;20132;-68
2022/11/19 08:13:51;;;;;;;24.95;15.15;;;1.90;99.90;;;;;;5018538;28;20071;-69
2022/11/19 08:19:08;;;;;;;24.88;14.93;;;2.00;99.90;;;;;;5011803;28;20378;-69
2022/11/19 08:21:39;;;;;;;27.65;14.93;;;1.90;99.90;;;;;;5008618;28;20041;-69
2022/11/19 08:24:08;;;;;;;26.67;14.93;;;2.00;99.90;;;;;;4989750;28;20065;-69
2022/11/19 08:26:36;;;;;;;31.42;16.17;;;2.00;99.90;;;;;;5010005;28;20042;-69
2022/11/19 08:29:05;;;;;;;27.25;14.63;;;2.10;99.90;;;;;;5021925;28;20037;-69
2022/11/19 08:31:38;;;;;;;27.42;15.35;;;2.10;99.90;;;;;;5027979;28;20046;-69
2022/11/19 08:34:05;;;;;;;28.33;15.88;;;2.10;99.90;;;;;;5026965;28;20048;-69
2022/11/19 08:36:33;;;;;;;26.20;15.13;;;2.10;99.90;;;;;;5003856;28;20050;-69
2022/11/19 08:39:01;;;;;;;24.35;14.48;;;2.10;99.90;;;;;;5026796;28;20056;-68
2022/11/19 08:44:16;;;;;;;25.52;14.63;;;2.20;99.90;;;;;;5020702;28;20046;-68
2022/11/19 08:46:44;;;;;;;25.23;14.63;;;2.20;99.90;;;;;;5027031;28;20048;-68
2022/11/19 08:49:12;;;;;;;26.92;15.35;;;2.30;99.90;;;;;;5025646;28;20691;-68
2022/11/19 08:51:39;;;;;;;24.33;14.98;;;2.30;99.90;;;;;;5011724;28;20600;-68
2022/11/19 08:54:07;;;;;;;25.90;14.50;;;2.30;99.90;;;;;;5022310;28;20111;-69
2022/11/19 08:56:34;;;;;;;25.02;13.90;;;2.30;99.90;;;;;;5008213;28;20053;-69
2022/11/19 08:59:02;;;;;;;29.35;16.40;;;2.20;99.90;;;;;;5025826;28;20041;-69
2022/11/19 09:01:30;;;;;;;29.00;15.07;;;2.30;99.90;;;;;;5023081;28;20746;-68
2022/11/19 09:03:58;;;;;;;27.50;15.50;;;2.30;99.90;;;;;;5021263;28;20046;-68
2022/11/19 09:06:26;;;;;;;28.88;16.67;;;2.30;99.90;;;;;;5026357;28;20515;-68
2022/11/19 09:08:53;;;;;;;24.98;15.32;;;2.30;99.90;;;;;;5013447;28;20054;-69
2022/11/19 09:11:21;;;;;;;26.00;15.07;;;2.30;99.90;;;;;;5022336;28;20116;-69
2022/11/19 09:13:49;;;;;;;27.85;15.68;;;2.30;99.90;;;;;;5023655;28;20037;-69
2022/11/19 09:16:16;;;;;;;26.63;15.35;;;2.40;99.90;;;;;;5026341;28;20575;-69
2022/11/19 09:18:43;;;;;;;33.55;18.25;;;2.40;99.90;;;;;;5024000;28;20048;-69
2022/11/19 09:21:11;;;;;;;27.77;16.65;;;2.50;99.90;;;;;;5022055;28;20450;-69
2022/11/19 09:23:41;;;;;;;31.60;17.92;;;2.50;99.90;;;;;;5027310;28;20076;-69
2022/11/19 09:26:14;;;;;;;32.22;17.38;;;2.50;99.90;;;;;;5016565;28;20117;-69
2022/11/19 09:28:42;;;;;;;32.78;18.85;;;2.70;99.90;;;;;;5008616;28;20151;-69
2022/11/19 09:31:13;;;;;;;31.95;18.63;;;2.70;99.90;;;;;;5010662;28;20050;-69
2022/11/19 09:33:44;;;;;;;27.55;17.35;;;2.80;99.90;;;;;;5019964;28;20550;-69
2022/11/19 09:36:12;;;;;;;30.60;18.67;;;2.80;99.90;;;;;;5013262;28;20105;-69
2022/11/19 09:38:40;;;;;;;25.73;14.55;;;2.80;99.90;;;;;;5023745;28;20041;-70
2022/11/19 09:41:20;;;;;;;27.23;15.82;;;2.90;99.90;;;;;;5017469;28;20053;-69
2022/11/19 09:43:53;;;;;;;24.13;14.25;;;2.80;99.90;;;;;;5008301;28;20053;-69
2022/11/19 09:46:20;;;;;;;24.90;15.60;;;2.90;99.90;;;;;;5022847;28;20052;-69
2022/11/19 09:48:51;;;;;;;26.15;15.05;;;2.90;99.90;;;;;;5003094;28;20057;-69
2022/11/19 09:51:28;;;;;;;25.33;14.75;;;3.00;99.90;;;;;;4996773;28;20060;-70
2022/11/19 09:54:02;;;;;;;25.58;14.98;;;3.00;99.90;;;;;;5025944;28;20038;-69
2022/11/19 09:56:52;;;;;;;26.08;14.63;;;3.00;99.90;;;;;;5022937;28;20107;-69
2022/11/19 09:59:27;;;;;;;27.35;15.82;;;3.00;99.90;;;;;;5026597;28;20044;-69
2022/11/19 10:01:54;;;;;;;27.60;16.17;;;3.00;99.90;;;;;;5013225;28;20045;-70
2022/11/19 10:04:24;;;;;;;25.50;15.70;;;3.00;99.90;;;;;;4997327;28;20195;-70
2022/11/19 10:07:07;;;;;;;24.45;14.52;;;3.10;99.90;;;;;;4993153;28;20530;-71
2022/11/19 10:09:51;;;;;;;25.67;15.13;;;3.20;99.90;;;;;;5017848;28;20041;-70
2022/11/19 10:12:44;;;;;;;28.85;15.60;;;3.30;99.90;;;;;;5025211;28;20567;-71
2022/11/19 10:15:30;;;;;;;29.90;16.17;;;3.30;99.90;;;;;;5030977;28;20080;-69
2022/11/19 10:18:25;;;;;;;25.38;14.80;;;3.30;99.90;;;;;;5029688;28;20499;-69
2022/11/19 10:20:53;;;;;;;25.95;14.93;;;3.30;99.90;;;;;;5025209;28;20041;-69
2022/11/19 10:23:29;;;;;;;26.83;15.23;;;3.30;99.90;;;;;;5030510;28;20132;-69
2022/11/19 10:26:03;;;;;;;29.35;16.45;;;3.30;99.90;;;;;;5030899;28;20071;-69
2022/11/19 10:28:35;;;;;;;27.33;15.93;;;3.40;99.90;;;;;;5021060;28;20478;-70
2022/11/19 10:31:21;;;;;;;25.92;15.45;;;3.30;99.90;;;;;;5022878;28;20030;-71
2022/11/19 10:34:13;;;;;;;26.92;15.10;;;3.40;99.90;;;;;;5021981;28;20095;-70
2022/11/19 10:36:46;;;;;;;24.98;13.55;;;3.30;99.90;;;;;;5013344;28;20556;-70
2022/11/19 10:39:46;;;;;;;23.67;13.95;;;3.20;99.90;;;;;;4999761;28;20079;-71
2022/11/19 10:42:39;;;;;;;22.92;13.85;;;3.30;99.90;;;;;;5003350;28;20050;-73
2022/11/19 10:45:16;;;;;;;29.75;15.18;;;3.40;99.90;;;;;;4984548;28;20603;-76
2022/11/19 10:47:47;;;;;;;25.30;14.23;;;3.30;99.90;;;;;;5014724;28;20115;-77
2022/11/19 10:50:19;;;;;;;27.25;14.38;;;3.40;99.90;;;;;;5026400;28;20129;-70
2022/11/19 10:52:57;;;;;;;24.67;14.60;;;3.60;99.90;;;;;;5021079;28;20041;-72
2022/11/19 10:55:38;;;;;;;24.05;14.88;;;3.60;99.90;;;;;;4995183;28;20555;-72
2022/11/19 10:58:22;;;;;;;26.95;15.27;;;3.70;99.90;;;;;;5015659;28;20630;-71
2022/11/19 11:00:55;;;;;;;27.88;16.25;;;3.70;99.90;;;;;;5029978;28;20411;-69
2022/11/19 11:03:32;;;;;;;26.10;16.02;;;3.70;99.90;;;;;;5020185;28;20049;-73
2022/11/19 11:06:05;;;;;;;26.92;15.10;;;3.70;99.90;;;;;;5018478;28;20129;-70
2022/11/19 11:08:45;;;;;;;29.17;15.88;;;3.80;99.90;;;;;;5001386;28;20129;-72
2022/11/19 11:11:19;;;;;;;25.25;15.18;;;3.70;99.90;;;;;;5009836;28;20172;-72
2022/11/19 11:16:39;;;;;;;26.48;15.93;;;3.60;99.90;;;;;;5001135;28;20099;-70
2022/11/19 11:19:13;;;;;;;27.77;16.98;;;3.50;99.90;;;;;;5003341;28;20053;-71
2022/11/19 11:21:42;;;;;;;28.13;17.00;;;3.60;99.90;;;;;;5017794;28;20103;-71
2022/11/19 11:24:11;;;;;;;34.40;19.75;;;3.60;99.90;;;;;;5028572;28;20107;-70
2022/11/19 11:26:39;;;;;;;25.73;15.38;;;3.50;99.90;;;;;;5027623;28;20056;-70
2022/11/19 11:29:25;;;;;;;25.27;15.85;;;3.50;99.90;;;;;;5027657;28;20471;-70
2022/11/19 11:31:53;;;;;;;27.30;16.10;;;3.50;99.90;;;;;;5018000;28;20045;-70
2022/11/19 11:34:35;;;;;;;26.38;15.20;;;3.50;99.90;;;;;;5027257;28;20038;-69
2022/11/19 11:37:04;;;;;;;;;;;3.50;99.90;;;;;;5012344;28;20033;-71
2022/11/19 11:39:43;;;;;;;24.65;15.20;;;3.70;99.90;;;;;;5026664;28;19936;-70
2022/11/19 11:42:16;;;;;;;27.25;16.05;;;3.70;99.90;;;;;;5023128;28;20099;-68
2022/11/19 11:44:53;;;;;;;25.45;16.30;;;3.70;99.90;;;;;;5015161;28;20052;-70
2022/11/19 11:47:31;;;;;;;23.50;15.05;;;3.70;99.90;;;;;;5030194;28;20295;-70
2022/11/19 11:50:20;;;;;;;28.95;15.95;;;3.70;99.90;;;;;;5015476;28;20714;-70
2022/11/19 11:52:52;;;;;;;28.60;15.65;;;3.70;99.90;;;;;;5018811;28;20049;-71
2022/11/19 11:55:23;;;;;;;28.63;16.67;;;3.60;99.90;;;;;;5024752;28;20144;-71
2022/11/19 11:57:56;;;;;;;24.92;15.55;;;3.40;99.90;;;;;;5019463;28;20496;-69
2022/11/19 12:00:34;;;;;;;29.10;16.20;;;3.40;99.90;;;;;;5008859;28;20141;-71
2022/11/19 12:03:12;;;;;;;25.83;15.02;;;3.30;99.90;;;;;;5018989;28;20418;-70
2022/11/19 12:06:01;;;;;;;31.50;16.55;;;3.10;99.90;;;;;;5015070;28;20034;-69
2022/11/19 12:08:37;;;;;;;29.48;16.75;;;2.90;99.90;;;;;;5025142;28;20095;-69
2022/11/19 12:11:13;;;;;;;25.98;16.05;;;2.90;99.90;;;;;;5018709;28;20042;-69
2022/11/19 12:13:52;;;;;;;30.92;15.98;;;2.70;99.90;;;;;;5029272;28;20488;-69
2022/11/19 12:16:31;;;;;;;27.08;15.57;;;2.80;99.90;;;;;;5018446;28;20045;-69
2022/11/19 12:19:30;;;;;;;30.17;15.70;;;2.80;99.90;;;;;;5028951;28;20053;-69
2022/11/19 12:22:26;;;;;;;27.85;15.75;;;2.80;99.90;;;;;;5035435;28;20546;-70
2022/11/19 12:25:30;;;;;;;30.40;16.08;;;2.80;99.90;;;;;;4988282;28;20065;-70
2022/11/19 12:28:34;;;;;;;26.30;15.87;;;2.80;99.90;;;;;;5010265;28;20833;-70
2022/11/19 12:31:40;;;;;;;27.80;15.80;;;2.80;99.90;;;;;;5009757;28;20512;-70
2022/11/19 12:34:26;;;;;;;26.85;15.68;;;2.80;99.90;;;;;;5005749;28;20045;-71
2022/11/19 12:37:05;;;;;;;26.35;15.77;;;2.80;99.90;;;;;;5025742;28;20073;-71
2022/11/19 12:39:45;;;;;;;29.40;16.42;;;2.80;99.90;;;;;;4993924;28;20099;-69
2022/11/19 12:42:27;;;;;;;33.00;17.38;;;2.70;99.90;;;;;;5017001;28;20052;-68
2022/11/19 12:45:04;;;;;;;27.17;16.20;;;2.60;99.90;;;;;;5026221;28;20506;-69
2022/11/19 12:48:11;;;;;;;30.55;18.13;;;2.60;99.90;;;;;;5012329;28;20476;-68
2022/11/19 12:51:04;;;;;;;29.13;16.88;;;2.60;99.90;;;;;;5007202;28;20140;-69
2022/11/19 12:53:43;;;;;;;28.23;16.52;;;2.60;99.90;;;;;;5007206;28;20045;-68
2022/11/19 12:56:48;;;;;;;27.27;16.20;;;2.60;99.90;;;;;;5007831;28;20045;-69
2022/11/19 12:59:53;;;;;;;27.13;16.25;;;2.60;99.90;;;;;;4999898;28;20045;-69
2022/11/19 13:02:31;;;;;;;25.05;14.98;;;2.70;99.90;;;;;;5007565;28;20139;-70
2022/11/19 13:05:14;;;;;;;26.60;15.32;;;2.60;99.90;;;;;;5012066;28;20104;-69
2022/11/19 13:07:56;;;;;;;26.65;15.73;;;2.70;99.90;;;;;;5023240;28;20025;-69
2022/11/19 13:10:37;;;;;;;26.63;15.68;;;2.70;99.90;;;;;;5019001;28;20037;-70
2022/11/19 13:13:08;;;;;;;31.50;15.95;;;2.60;99.90;;;;;;5020391;28;20049;-69
2022/11/19 13:15:47;;;;;;;27.67;14.88;;;2.60;99.90;;;;;;5028758;28;20046;-69
2022/11/19 13:18:17;;;;;;;26.52;15.32;;;2.60;99.90;;;;;;4993363;28;20065;-71
2022/11/19 13:20:54;;;;;;;26.05;15.13;;;2.60;99.90;;;;;;5025726;28;20510;-69
2022/11/19 13:23:26;;;;;;;25.70;15.30;;;2.60;99.90;;;;;;4994292;28;20486;-70
2022/11/19 13:26:01;;;;;;;31.25;17.55;;;2.50;99.90;;;;;;5006590;28;20516;-69
2022/11/19 13:28:39;;;;;;;29.33;17.42;;;2.40;99.90;;;;;;5011855;28;20504;-69
2022/11/19 13:31:18;;;;;;;27.85;15.68;;;2.30;99.90;;;;;;5029208;28;20120;-69
2022/11/19 13:33:52;;;;;;;28.35;15.63;;;2.30;99.90;;;;;;5026895;28;20366;-68
2022/11/19 13:36:32;;;;;;;27.75;16.05;;;2.30;99.90;;;;;;5001943;28;20557;-70
2022/11/19 13:39:18;;;;;;;36.25;19.30;;;2.20;99.90;;;;;;5021224;28;20145;-69
2022/11/19 13:44:42;;;;;;;31.15;17.60;;;2.20;99.90;;;;;;5019895;28;20128;-69